sensor_id;sensor_type;location;lat;lon;timestamp;temperature;humidity
39621;DHT22;25309;48.686;9.170;2022-12-18T00:02:13;-7.30;99.90
39621;DHT22;25309;48.686;9.170;2022-12-18T00:04:40;-7.40;99.90
39621;DHT22;25309;48.686;9.170;2022-12-18T00:07:07;-7.40;99.90
39621;DHT22;25309;48.686;9.170;2022-12-18T00:09:34;-7.40;99.90
39621;DHT22;25309;48.686;9.170;2022-12-18T00:12:06;-7.40;99.90
39621;DHT22;25309;48.686;9.170;2022-12-18T00:14:45;-7.50;99.90
39621;DHT22;25309;48.686;9.170;2022-12-18T00:17:12;-7.50;99.90
39621;DHT22;25309;48.686;9.170;2022-12-18T00:19:39;-7.50;99.90
39621;DHT22;25309;48.686;9.170;2022-12-18T00:22:06;-7.50;99.90
39621;DHT22;25309;48.686;9.170;2022-12-18T00:24:33;-7.40;99.90
39621;DHT22;25309;48.686;9.170;2022-12-18T00:27:00;-7.40;99.90
39621;DHT22;25309;48.686;9.170;2022-12-18T00:29:27;-7.40;99.90
39621;DHT22;25309;48.686;9.170;2022-12-18T00:31:55;-7.40;99.90
39621;DHT22;25309;48.686;9.170;2022-12-18T00:34:22;-7.40;99.90
39621;DHT22;25309;48.686;9.170;2022-12-18T00:36:49;-7.30;99.90
39621;DHT22;25309;48.686;9.170;2022-12-18T00:39:16;-7.20;99.90
39621;DHT22;25309;48.686;9.170;2022-12-18T00:41:44;-7.30;99.90
39621;DHT22;25309;48.686;9.170;2022-12-18T00:44:30;-7.20;99.90
39621;DHT22;25309;48.686;9.170;2022-12-18T00:46:59;-7.30;99.90
39621;DHT22;25309;48.686;9.170;2022-12-18T00:49:25;-7.30;99.90
39621;DHT22;25309;48.686;9.170;2022-12-18T00:51:55;-7.40;99.90
39621;DHT22;25309;48.686;9.170;2022-12-18T00:54:23;-7.40;99.90
39621;DHT22;25309;48.686;9.170;2022-12-18T00:56:50;-7.30;99.90
39621;DHT22;25309;48.686;9.170;2022-12-18T00:59:17;-7.30;99.90
39621;DHT22;25309;48.686;9.170;2022-12-18T01:01:45;-7.30;99.90
39621;DHT22;25309;48.686;9.170;2022-12-18T01:04:14;-7.20;99.90
39621;DHT22;25309;48.686;9.170;2022-12-18T01:06:44;-7.30;99.90
39621;DHT22;25309;48.686;9.170;2022-12-18T01:09:12;-7.40;99.90
39621;DHT22;25309;48.686;9.170;2022-12-18T01:11:39;-7.40;99.90
39621;DHT22;25309;48.686;9.170;2022-12-18T01:14:06;-7.40;99.90
39621;DHT22;25309;48.686;9.170;2022-12-18T01:16:33;-7.40;99.90
39621;DHT22;25309;48.686;9.170;2022-12-18T01:19:00;-7.40;99.90
39621;DHT22;25309;48.686;9.170;2022-12-18T01:21:28;-7.30;99.90
39621;DHT22;25309;48.686;9.170;2022-12-18T01:23:56;-7.40;99.90
39621;DHT22;25309;48.686;9.170;2022-12-18T01:26:24;-7.40;99.90
39621;DHT22;25309;48.686;9.170;2022-12-18T01:28:53;-7.40;99.90
39621;DHT22;25309;48.686;9.170;2022-12-18T01:31:23;-7.40;99.90
39621;DHT22;25309;48.686;9.170;2022-12-18T01:33:51;-7.50;99.90
39621;DHT22;25309;48.686;9.170;2022-12-18T01:36:20;-7.50;99.90
39621;DHT22;25309;48.686;9.170;2022-12-18T01:38:49;-7.50;99.90
39621;DHT22;25309;48.686;9.170;2022-12-18T01:41:20;-7.50;99.90
39621;DHT22;25309;48.686;9.170;2022-12-18T01:43:52;-7.40;99.90
39621;DHT22;25309;48.686;9.170;2022-12-18T01:46:22;-7.40;99.90
39621;DHT22;25309;48.686;9.170;2022-12-18T01:48:53;-7.40;99.90
39621;DHT22;25309;48.686;9.170;2022-12-18T01:51:24;-7.40;99.90
39621;DHT22;25309;48.686;9.170;2022-12-18T01:53:53;-7.40;99.90
39621;DHT22;25309;48.686;9.170;2022-12-18T01:56:21;-7.40;99.90
39621;DHT22;25309;48.686;9.170;2022-12-18T01:58:54;-7.40;99.90
39621;DHT22;25309;48.686;9.170;2022-12-18T02:01:23;-7.40;99.90
39621;DHT22;25309;48.686;9.170;2022-12-18T02:03:51;-7.40;99.90
39621;DHT22;25309;48.686;9.170;2022-12-18T02:06:22;-7.50;99.90
39621;DHT22;25309;48.686;9.170;2022-12-18T02:09:01;-7.50;99.90
39621;DHT22;25309;48.686;9.170;2022-12-18T02:11:39;-7.50;99.90
39621;DHT22;25309;48.686;9.170;2022-12-18T02:14:16;-7.40;99.90
39621;DHT22;25309;48.686;9.170;2022-12-18T02:16:50;-7.30;99.90
39621;DHT22;25309;48.686;9.170;2022-12-18T02:19:34;-7.30;99.90
39621;DHT22;25309;48.686;9.170;2022-12-18T02:22:15;-7.30;99.90
39621;DHT22;25309;48.686;9.170;2022-12-18T02:24:53;-7.20;99.90
39621;DHT22;25309;48.686;9.170;2022-12-18T02:27:27;-7.10;99.90
39621;DHT22;25309;48.686;9.170;2022-12-18T02:29:55;-7.10;99.90
39621;DHT22;25309;48.686;9.170;2022-12-18T02:32:29;-7.10;99.90
39621;DHT22;25309;48.686;9.170;2022-12-18T02:34:58;-7.00;99.90
39621;DHT22;25309;48.686;9.170;2022-12-18T02:37:28;-7.00;99.90
39621;DHT22;25309;48.686;9.170;2022-12-18T02:39:59;-7.00;99.90
39621;DHT22;25309;48.686;9.170;2022-12-18T02:42:28;-7.00;99.90
39621;DHT22;25309;48.686;9.170;2022-12-18T02:44:55;-7.00;99.90
39621;DHT22;25309;48.686;9.170;2022-12-18T02:47:28;-7.00;99.90
39621;DHT22;25309;48.686;9.170;2022-12-18T02:50:02;-7.10;99.90
39621;DHT22;25309;48.686;9.170;2022-12-18T02:52:38;-7.10;99.90
39621;DHT22;25309;48.686;9.170;2022-12-18T02:55:20;-7.10;99.90
39621;DHT22;25309;48.686;9.170;2022-12-18T02:57:59;-7.20;99.90
39621;DHT22;25309;48.686;9.170;2022-12-18T03:00:37;-7.20;99.90
39621;DHT22;25309;48.686;9.170;2022-12-18T03:03:08;-7.20;99.90
39621;DHT22;25309;48.686;9.170;2022-12-18T03:05:40;-7.30;99.90
39621;DHT22;25309;48.686;9.170;2022-12-18T03:08:12;-7.40;99.90
39621;DHT22;25309;48.686;9.170;2022-12-18T03:10:45;-7.40;99.90
39621;DHT22;25309;48.686;9.170;2022-12-18T03:13:21;-7.50;99.90
39621;DHT22;25309;48.686;9.170;2022-12-18T03:15:53;-7.60;99.90
39621;DHT22;25309;48.686;9.170;2022-12-18T03:18:24;-7.60;99.90
39621;DHT22;25309;48.686;9.170;2022-12-18T03:20:53;-7.70;99.90
39621;DHT22;25309;48.686;9.170;2022-12-18T03:23:24;-7.70;99.90
39621;DHT22;25309;48.686;9.170;2022-12-18T03:25:55;-7.70;99.90
39621;DHT22;25309;48.686;9.170;2022-12-18T03:28:32;-7.70;99.90
39621;DHT22;25309;48.686;9.170;2022-12-18T03:31:05;-7.70;99.90
39621;DHT22;25309;48.686;9.170;2022-12-18T03:33:37;-7.70;99.90
39621;DHT22;25309;48.686;9.170;2022-12-18T03:36:05;-7.60;99.90
39621;DHT22;25309;48.686;9.170;2022-12-18T03:38:33;-7.60;99.90
39621;DHT22;25309;48.686;9.170;2022-12-18T03:41:04;-7.60;99.90
39621;DHT22;25309;48.686;9.170;2022-12-18T03:43:45;-7.60;99.90
39621;DHT22;25309;48.686;9.170;2022-12-18T03:46:20;-7.60;99.90
39621;DHT22;25309;48.686;9.170;2022-12-18T03:48:55;-7.70;99.90
39621;DHT22;25309;48.686;9.170;2022-12-18T03:51:28;-7.70;99.90
39621;DHT22;25309;48.686;9.170;2022-12-18T03:54:02;-7.70;99.90
39621;DHT22;25309;48.686;9.170;2022-12-18T03:56:37;-7.80;99.90
39621;DHT22;25309;48.686;9.170;2022-12-18T03:59:09;-7.80;99.90
39621;DHT22;25309;48.686;9.170;2022-12-18T04:01:40;-7.80;99.90
39621;DHT22;25309;48.686;9.170;2022-12-18T04:04:12;-7.80;99.90
39621;DHT22;25309;48.686;9.170;2022-12-18T04:06:41;-7.80;99.90
39621;DHT22;25309;48.686;9.170;2022-12-18T04:09:10;-7.90;99.90
39621;DHT22;25309;48.686;9.170;2022-12-18T04:11:42;-8.00;99.90
39621;DHT22;25309;48.686;9.170;2022-12-18T04:14:14;-8.10;99.90
39621;DHT22;25309;48.686;9.170;2022-12-18T04:16:44;-8.10;99.90
39621;DHT22;25309;48.686;9.170;2022-12-18T04:19:14;-8.10;99.90
39621;DHT22;25309;48.686;9.170;2022-12-18T04:21:43;-8.20;99.90
39621;DHT22;25309;48.686;9.170;2022-12-18T04:24:12;-8.30;99.90
39621;DHT22;25309;48.686;9.170;2022-12-18T04:26:45;-8.40;99.90
39621;DHT22;25309;48.686;9.170;2022-12-18T04:29:19;-8.40;99.90
39621;DHT22;25309;48.686;9.170;2022-12-18T04:31:46;-8.50;99.90
39621;DHT22;25309;48.686;9.170;2022-12-18T04:34:14;-8.60;99.90
39621;DHT22;25309;48.686;9.170;2022-12-18T04:36:47;-8.70;99.90
39621;DHT22;25309;48.686;9.170;2022-12-18T04:39:15;-8.80;99.90
39621;DHT22;25309;48.686;9.170;2022-12-18T04:41:44;-8.80;99.90
39621;DHT22;25309;48.686;9.170;2022-12-18T04:44:12;-8.80;99.90
39621;DHT22;25309;48.686;9.170;2022-12-18T04:46:40;-8.80;99.90
39621;DHT22;25309;48.686;9.170;2022-12-18T04:49:07;-8.70;99.90
39621;DHT22;25309;48.686;9.170;2022-12-18T04:51:37;-8.70;99.90
39621;DHT22;25309;48.686;9.170;2022-12-18T04:54:04;-8.70;99.90
39621;DHT22;25309;48.686;9.170;2022-12-18T04:56:31;-8.70;99.90
39621;DHT22;25309;48.686;9.170;2022-12-18T04:58:58;-8.70;99.90
39621;DHT22;25309;48.686;9.170;2022-12-18T05:01:25;-8.70;99.90
39621;DHT22;25309;48.686;9.170;2022-12-18T05:04:01;-8.60;99.90
39621;DHT22;25309;48.686;9.170;2022-12-18T05:06:28;-8.70;99.90
39621;DHT22;25309;48.686;9.170;2022-12-18T05:08:55;-8.70;99.90
39621;DHT22;25309;48.686;9.170;2022-12-18T05:11:22;-8.70;99.90
39621;DHT22;25309;48.686;9.170;2022-12-18T05:13:49;-8.70;99.90
39621;DHT22;25309;48.686;9.170;2022-12-18T05:16:16;-8.70;99.90
39621;DHT22;25309;48.686;9.170;2022-12-18T05:18:43;-8.70;99.90
39621;DHT22;25309;48.686;9.170;2022-12-18T05:21:11;-8.70;99.90
39621;DHT22;25309;48.686;9.170;2022-12-18T05:23:38;-8.80;99.90
39621;DHT22;25309;48.686;9.170;2022-12-18T05:26:06;-8.90;99.90
39621;DHT22;25309;48.686;9.170;2022-12-18T05:28:35;-8.80;99.90
39621;DHT22;25309;48.686;9.170;2022-12-18T05:31:03;-8.80;99.90
39621;DHT22;25309;48.686;9.170;2022-12-18T05:33:32;-8.80;99.90
39621;DHT22;25309;48.686;9.170;2022-12-18T05:36:00;-8.70;99.90
39621;DHT22;25309;48.686;9.170;2022-12-18T05:38:30;-8.70;99.90
39621;DHT22;25309;48.686;9.170;2022-12-18T05:40:57;-8.70;99.90
39621;DHT22;25309;48.686;9.170;2022-12-18T05:43:25;-8.70;99.90
39621;DHT22;25309;48.686;9.170;2022-12-18T05:45:53;-8.70;99.90
39621;DHT22;25309;48.686;9.170;2022-12-18T05:48:21;-8.70;99.90
39621;DHT22;25309;48.686;9.170;2022-12-18T05:50:49;-8.70;99.90
39621;DHT22;25309;48.686;9.170;2022-12-18T05:53:18;-8.90;99.90
39621;DHT22;25309;48.686;9.170;2022-12-18T05:55:47;-8.90;99.90
39621;DHT22;25309;48.686;9.170;2022-12-18T05:58:14;-8.90;99.90
39621;DHT22;25309;48.686;9.170;2022-12-18T06:00:44;-8.90;99.90
39621;DHT22;25309;48.686;9.170;2022-12-18T06:03:12;-8.90;99.90
39621;DHT22;25309;48.686;9.170;2022-12-18T06:05:41;-9.00;99.90
39621;DHT22;25309;48.686;9.170;2022-12-18T06:08:08;-9.10;99.90
39621;DHT22;25309;48.686;9.170;2022-12-18T06:10:35;-9.10;99.90
39621;DHT22;25309;48.686;9.170;2022-12-18T06:13:04;-9.00;99.90
39621;DHT22;25309;48.686;9.170;2022-12-18T06:15:32;-8.90;99.90
39621;DHT22;25309;48.686;9.170;2022-12-18T06:18:00;-9.00;99.90
39621;DHT22;25309;48.686;9.170;2022-12-18T06:20:27;-8.90;99.90
39621;DHT22;25309;48.686;9.170;2022-12-18T06:22:59;-8.80;99.90
39621;DHT22;25309;48.686;9.170;2022-12-18T06:25:26;-8.80;99.90
39621;DHT22;25309;48.686;9.170;2022-12-18T06:27:53;-8.80;99.90
39621;DHT22;25309;48.686;9.170;2022-12-18T06:30:21;-8.90;99.90
39621;DHT22;25309;48.686;9.170;2022-12-18T06:32:49;-8.90;99.90
39621;DHT22;25309;48.686;9.170;2022-12-18T06:35:21;-9.00;99.90
39621;DHT22;25309;48.686;9.170;2022-12-18T06:37:48;-9.00;99.90
39621;DHT22;25309;48.686;9.170;2022-12-18T06:40:16;-9.00;99.90
39621;DHT22;25309;48.686;9.170;2022-12-18T06:42:43;-9.00;99.90
39621;DHT22;25309;48.686;9.170;2022-12-18T06:45:10;-8.90;99.90
39621;DHT22;25309;48.686;9.170;2022-12-18T06:47:39;-8.90;99.90
39621;DHT22;25309;48.686;9.170;2022-12-18T06:50:07;-9.00;99.90
39621;DHT22;25309;48.686;9.170;2022-12-18T06:52:33;-9.00;99.90
39621;DHT22;25309;48.686;9.170;2022-12-18T06:55:00;-9.10;99.90
39621;DHT22;25309;48.686;9.170;2022-12-18T06:57:27;-9.20;99.90
39621;DHT22;25309;48.686;9.170;2022-12-18T06:59:54;-9.30;99.90
39621;DHT22;25309;48.686;9.170;2022-12-18T07:02:21;-9.30;99.90
39621;DHT22;25309;48.686;9.170;2022-12-18T07:04:50;-9.30;99.90
39621;DHT22;25309;48.686;9.170;2022-12-18T07:07:17;-9.30;99.90
39621;DHT22;25309;48.686;9.170;2022-12-18T07:09:44;-9.20;99.90
39621;DHT22;25309;48.686;9.170;2022-12-18T07:12:10;-9.20;99.90
39621;DHT22;25309;48.686;9.170;2022-12-18T07:14:37;-9.10;99.90
39621;DHT22;25309;48.686;9.170;2022-12-18T07:17:04;-9.10;99.90
39621;DHT22;25309;48.686;9.170;2022-12-18T07:19:32;-9.00;99.90
39621;DHT22;25309;48.686;9.170;2022-12-18T07:22:00;-9.10;99.90
39621;DHT22;25309;48.686;9.170;2022-12-18T07:24:27;-9.10;99.90
39621;DHT22;25309;48.686;9.170;2022-12-18T07:26:54;-9.00;99.90
39621;DHT22;25309;48.686;9.170;2022-12-18T07:29:21;-9.00;99.90
39621;DHT22;25309;48.686;9.170;2022-12-18T07:31:48;-8.90;99.90
39621;DHT22;25309;48.686;9.170;2022-12-18T07:34:16;-8.90;99.90
39621;DHT22;25309;48.686;9.170;2022-12-18T07:36:43;-8.80;99.90
39621;DHT22;25309;48.686;9.170;2022-12-18T07:39:12;-8.70;99.90
39621;DHT22;25309;48.686;9.170;2022-12-18T07:41:38;-8.60;99.90
39621;DHT22;25309;48.686;9.170;2022-12-18T07:44:15;-8.50;99.90
39621;DHT22;25309;48.686;9.170;2022-12-18T07:46:42;-8.40;99.90
39621;DHT22;25309;48.686;9.170;2022-12-18T07:49:08;-8.40;99.90
39621;DHT22;25309;48.686;9.170;2022-12-18T07:51:35;-8.30;99.90
39621;DHT22;25309;48.686;9.170;2022-12-18T07:54:02;-8.20;99.90
39621;DHT22;25309;48.686;9.170;2022-12-18T07:56:31;-8.10;99.90
39621;DHT22;25309;48.686;9.170;2022-12-18T07:58:58;-8.10;99.90
39621;DHT22;25309;48.686;9.170;2022-12-18T08:01:25;-8.00;99.90
39621;DHT22;25309;48.686;9.170;2022-12-18T08:03:52;-8.00;99.90
39621;DHT22;25309;48.686;9.170;2022-12-18T08:06:19;-7.90;99.90
39621;DHT22;25309;48.686;9.170;2022-12-18T08:08:51;-7.80;99.90
39621;DHT22;25309;48.686;9.170;2022-12-18T08:11:18;-7.80;99.90
39621;DHT22;25309;48.686;9.170;2022-12-18T08:13:46;-7.80;99.90
39621;DHT22;25309;48.686;9.170;2022-12-18T08:16:13;-7.70;99.90
39621;DHT22;25309;48.686;9.170;2022-12-18T08:18:40;-7.70;99.90
39621;DHT22;25309;48.686;9.170;2022-12-18T08:21:08;-7.70;99.90
39621;DHT22;25309;48.686;9.170;2022-12-18T08:23:36;-7.60;99.90
39621;DHT22;25309;48.686;9.170;2022-12-18T08:26:09;-7.60;99.90
39621;DHT22;25309;48.686;9.170;2022-12-18T08:28:36;-7.70;99.90
39621;DHT22;25309;48.686;9.170;2022-12-18T08:31:05;-7.60;99.90
39621;DHT22;25309;48.686;9.170;2022-12-18T08:33:32;-7.60;99.90
39621;DHT22;25309;48.686;9.170;2022-12-18T08:36:00;-7.70;99.90
39621;DHT22;25309;48.686;9.170;2022-12-18T08:38:27;-7.70;99.90
39621;DHT22;25309;48.686;9.170;2022-12-18T08:40:58;-7.60;99.90
39621;DHT22;25309;48.686;9.170;2022-12-18T08:43:26;-7.60;99.90
39621;DHT22;25309;48.686;9.170;2022-12-18T08:46:13;-7.60;99.90
39621;DHT22;25309;48.686;9.170;2022-12-18T08:48:43;-7.50;99.90
39621;DHT22;25309;48.686;9.170;2022-12-18T08:51:10;-7.50;99.90
39621;DHT22;25309;48.686;9.170;2022-12-18T08:53:37;-7.50;99.90
39621;DHT22;25309;48.686;9.170;2022-12-18T08:56:05;-7.40;99.90
39621;DHT22;25309;48.686;9.170;2022-12-18T08:58:32;-7.40;99.90
39621;DHT22;25309;48.686;9.170;2022-12-18T09:01:00;-7.40;99.90
39621;DHT22;25309;48.686;9.170;2022-12-18T09:03:29;-7.30;99.90
39621;DHT22;25309;48.686;9.170;2022-12-18T09:05:56;-7.20;99.90
39621;DHT22;25309;48.686;9.170;2022-12-18T09:08:23;-7.00;99.90
39621;DHT22;25309;48.686;9.170;2022-12-18T09:10:50;-6.90;99.90
39621;DHT22;25309;48.686;9.170;2022-12-18T09:13:18;-6.70;99.90
39621;DHT22;25309;48.686;9.170;2022-12-18T09:15:47;-6.60;99.90
39621;DHT22;25309;48.686;9.170;2022-12-18T09:18:16;-6.50;99.90
39621;DHT22;25309;48.686;9.170;2022-12-18T09:20:45;-6.40;99.90
39621;DHT22;25309;48.686;9.170;2022-12-18T09:23:12;-6.30;99.90
39621;DHT22;25309;48.686;9.170;2022-12-18T09:25:39;-6.10;99.90
39621;DHT22;25309;48.686;9.170;2022-12-18T09:28:11;-5.90;99.90
39621;DHT22;25309;48.686;9.170;2022-12-18T09:30:40;-5.50;99.90
39621;DHT22;25309;48.686;9.170;2022-12-18T09:33:07;-5.20;99.90
39621;DHT22;25309;48.686;9.170;2022-12-18T09:35:36;-4.80;99.90
39621;DHT22;25309;48.686;9.170;2022-12-18T09:38:04;-4.50;99.90
39621;DHT22;25309;48.686;9.170;2022-12-18T09:40:34;-4.10;99.90
39621;DHT22;25309;48.686;9.170;2022-12-18T09:43:04;-3.90;99.90
39621;DHT22;25309;48.686;9.170;2022-12-18T09:45:41;-3.70;99.90
39621;DHT22;25309;48.686;9.170;2022-12-18T09:48:11;-3.60;99.90
39621;DHT22;25309;48.686;9.170;2022-12-18T09:50:43;-3.40;99.90
39621;DHT22;25309;48.686;9.170;2022-12-18T09:53:15;-3.30;99.90
39621;DHT22;25309;48.686;9.170;2022-12-18T09:55:46;-3.10;99.90
39621;DHT22;25309;48.686;9.170;2022-12-18T09:58:18;-3.00;99.90
39621;DHT22;25309;48.686;9.170;2022-12-18T10:00:45;-2.90;99.90
39621;DHT22;25309;48.686;9.170;2022-12-18T10:03:14;-2.90;99.90
39621;DHT22;25309;48.686;9.170;2022-12-18T10:05:49;-2.80;99.90
39621;DHT22;25309;48.686;9.170;2022-12-18T10:08:27;-2.70;99.90
39621;DHT22;25309;48.686;9.170;2022-12-18T10:11:09;-2.60;99.90
39621;DHT22;25309;48.686;9.170;2022-12-18T10:13:43;-2.50;99.90
39621;DHT22;25309;48.686;9.170;2022-12-18T10:16:17;-2.40;99.90
39621;DHT22;25309;48.686;9.170;2022-12-18T10:19:00;-2.30;99.90
39621;DHT22;25309;48.686;9.170;2022-12-18T10:21:32;-2.20;99.90
39621;DHT22;25309;48.686;9.170;2022-12-18T10:24:08;-2.00;99.90
39621;DHT22;25309;48.686;9.170;2022-12-18T10:26:41;-1.90;99.90
39621;DHT22;25309;48.686;9.170;2022-12-18T10:29:11;-1.70;99.90
39621;DHT22;25309;48.686;9.170;2022-12-18T10:31:39;-1.40;99.90
39621;DHT22;25309;48.686;9.170;2022-12-18T10:34:09;-1.10;99.90
39621;DHT22;25309;48.686;9.170;2022-12-18T10:36:36;-0.80;99.90
39621;DHT22;25309;48.686;9.170;2022-12-18T10:39:17;-0.60;99.90
39621;DHT22;25309;48.686;9.170;2022-12-18T10:41:44;-0.40;99.90
39621;DHT22;25309;48.686;9.170;2022-12-18T10:44:15;-0.20;99.90
39621;DHT22;25309;48.686;9.170;2022-12-18T10:46:44;-0.10;99.90
39621;DHT22;25309;48.686;9.170;2022-12-18T10:49:23;0.00;99.90
39621;DHT22;25309;48.686;9.170;2022-12-18T10:52:05;0.20;99.90
39621;DHT22;25309;48.686;9.170;2022-12-18T10:54:35;0.20;99.90
39621;DHT22;25309;48.686;9.170;2022-12-18T11:00:23;0.50;99.90
39621;DHT22;25309;48.686;9.170;2022-12-18T11:02:51;0.70;99.90
39621;DHT22;25309;48.686;9.170;2022-12-18T11:05:28;0.80;99.90
39621;DHT22;25309;48.686;9.170;2022-12-18T11:07:56;1.00;99.90
39621;DHT22;25309;48.686;9.170;2022-12-18T11:10:28;1.20;99.90
39621;DHT22;25309;48.686;9.170;2022-12-18T11:13:10;1.40;99.90
39621;DHT22;25309;48.686;9.170;2022-12-18T11:15:40;1.60;99.90
39621;DHT22;25309;48.686;9.170;2022-12-18T11:18:16;1.80;99.90
39621;DHT22;25309;48.686;9.170;2022-12-18T11:20:50;1.90;99.90
39621;DHT22;25309;48.686;9.170;2022-12-18T11:23:24;1.90;99.90
39621;DHT22;25309;48.686;9.170;2022-12-18T11:25:56;2.10;99.80
39621;DHT22;25309;48.686;9.170;2022-12-18T11:28:36;2.10;99.40
39621;DHT22;25309;48.686;9.170;2022-12-18T11:31:23;2.20;99.60
39621;DHT22;25309;48.686;9.170;2022-12-18T11:33:57;2.20;99.20
39621;DHT22;25309;48.686;9.170;2022-12-18T11:36:47;2.30;99.00
39621;DHT22;25309;48.686;9.170;2022-12-18T11:39:19;2.30;99.20
39621;DHT22;25309;48.686;9.170;2022-12-18T11:41:53;2.30;99.00
39621;DHT22;25309;48.686;9.170;2022-12-18T11:44:42;2.30;98.80
39621;DHT22;25309;48.686;9.170;2022-12-18T11:47:16;2.30;99.00
39621;DHT22;25309;48.686;9.170;2022-12-18T11:49:49;2.30;98.80
39621;DHT22;25309;48.686;9.170;2022-12-18T11:52:19;2.30;99.00
39621;DHT22;25309;48.686;9.170;2022-12-18T11:54:51;2.30;99.20
39621;DHT22;25309;48.686;9.170;2022-12-18T11:57:26;2.40;99.40
39621;DHT22;25309;48.686;9.170;2022-12-18T12:00:01;2.40;99.10
39621;DHT22;25309;48.686;9.170;2022-12-18T12:03:13;2.40;98.60
39621;DHT22;25309;48.686;9.170;2022-12-18T12:05:55;2.50;98.80
39621;DHT22;25309;48.686;9.170;2022-12-18T12:08:32;2.50;98.80
39621;DHT22;25309;48.686;9.170;2022-12-18T12:11:07;2.40;98.70
39621;DHT22;25309;48.686;9.170;2022-12-18T12:13:46;2.20;99.00
39621;DHT22;25309;48.686;9.170;2022-12-18T12:16:18;2.20;99.30
39621;DHT22;25309;48.686;9.170;2022-12-18T12:19:01;2.20;98.90
39621;DHT22;25309;48.686;9.170;2022-12-18T12:21:37;2.20;98.90
39621;DHT22;25309;48.686;9.170;2022-12-18T12:24:21;2.10;98.40
39621;DHT22;25309;48.686;9.170;2022-12-18T12:26:58;2.00;98.60
39621;DHT22;25309;48.686;9.170;2022-12-18T12:29:42;1.90;98.60
39621;DHT22;25309;48.686;9.170;2022-12-18T12:32:22;1.80;98.70
39621;DHT22;25309;48.686;9.170;2022-12-18T12:35:02;1.80;99.10
39621;DHT22;25309;48.686;9.170;2022-12-18T12:37:41;1.80;99.00
39621;DHT22;25309;48.686;9.170;2022-12-18T12:40:15;1.60;98.80
39621;DHT22;25309;48.686;9.170;2022-12-18T12:43:12;1.50;99.40
39621;DHT22;25309;48.686;9.170;2022-12-18T12:45:49;1.50;99.60
39621;DHT22;25309;48.686;9.170;2022-12-18T12:48:24;1.50;99.20
39621;DHT22;25309;48.686;9.170;2022-12-18T12:50:55;1.50;99.00
39621;DHT22;25309;48.686;9.170;2022-12-18T12:53:29;1.40;99.20
39621;DHT22;25309;48.686;9.170;2022-12-18T12:55:57;1.30;99.20
39621;DHT22;25309;48.686;9.170;2022-12-18T12:58:31;1.30;99.40
39621;DHT22;25309;48.686;9.170;2022-12-18T13:01:09;1.20;99.30
39621;DHT22;25309;48.686;9.170;2022-12-18T13:03:52;1.10;99.30
39621;DHT22;25309;48.686;9.170;2022-12-18T13:06:28;1.10;99.40
39621;DHT22;25309;48.686;9.170;2022-12-18T13:08:59;1.00;99.40
39621;DHT22;25309;48.686;9.170;2022-12-18T13:11:38;1.00;99.50
39621;DHT22;25309;48.686;9.170;2022-12-18T13:14:31;0.90;99.80
39621;DHT22;25309;48.686;9.170;2022-12-18T13:20:09;0.90;99.90
39621;DHT22;25309;48.686;9.170;2022-12-18T13:22:40;0.80;99.90
39621;DHT22;25309;48.686;9.170;2022-12-18T13:25:27;0.70;99.90
39621;DHT22;25309;48.686;9.170;2022-12-18T13:28:00;0.70;99.90
39621;DHT22;25309;48.686;9.170;2022-12-18T13:30:48;0.70;99.90
39621;DHT22;25309;48.686;9.170;2022-12-18T13:33:49;0.60;99.90
39621;DHT22;25309;48.686;9.170;2022-12-18T13:36:37;0.60;99.90
39621;DHT22;25309;48.686;9.170;2022-12-18T13:39:22;0.60;99.90
39621;DHT22;25309;48.686;9.170;2022-12-18T13:42:31;0.60;99.90
39621;DHT22;25309;48.686;9.170;2022-12-18T13:45:40;0.50;99.90
39621;DHT22;25309;48.686;9.170;2022-12-18T13:48:17;0.50;99.90
39621;DHT22;25309;48.686;9.170;2022-12-18T13:50:49;0.50;99.90
39621;DHT22;25309;48.686;9.170;2022-12-18T13:53:23;0.50;99.90
39621;DHT22;25309;48.686;9.170;2022-12-18T13:55:51;0.40;99.90
39621;DHT22;25309;48.686;9.170;2022-12-18T13:58:18;0.40;99.90
39621;DHT22;25309;48.686;9.170;2022-12-18T14:00:45;0.50;99.90
39621;DHT22;25309;48.686;9.170;2022-12-18T14:03:21;0.50;99.90
39621;DHT22;25309;48.686;9.170;2022-12-18T14:05:54;0.40;99.90
39621;DHT22;25309;48.686;9.170;2022-12-18T14:08:32;0.40;99.90
39621;DHT22;25309;48.686;9.170;2022-12-18T14:11:00;0.40;99.90
39621;DHT22;25309;48.686;9.170;2022-12-18T14:13:30;0.40;99.90
39621;DHT22;25309;48.686;9.170;2022-12-18T14:16:00;0.30;99.90
39621;DHT22;25309;48.686;9.170;2022-12-18T14:18:33;0.30;99.90
39621;DHT22;25309;48.686;9.170;2022-12-18T14:21:04;0.30;99.90
39621;DHT22;25309;48.686;9.170;2022-12-18T14:23:35;0.20;99.90
39621;DHT22;25309;48.686;9.170;2022-12-18T14:26:17;0.20;99.90
39621;DHT22;25309;48.686;9.170;2022-12-18T14:28:46;0.20;99.90
39621;DHT22;25309;48.686;9.170;2022-12-18T14:31:18;0.10;99.90
39621;DHT22;25309;48.686;9.170;2022-12-18T14:33:47;0.00;99.90
39621;DHT22;25309;48.686;9.170;2022-12-18T14:36:17;0.00;99.90
39621;DHT22;25309;48.686;9.170;2022-12-18T14:38:50;-0.10;99.90
39621;DHT22;25309;48.686;9.170;2022-12-18T14:41:18;-0.10;99.90
39621;DHT22;25309;48.686;9.170;2022-12-18T14:43:47;-0.10;99.90
39621;DHT22;25309;48.686;9.170;2022-12-18T14:46:34;-0.10;99.90
39621;DHT22;25309;48.686;9.170;2022-12-18T14:49:04;-0.20;99.90
39621;DHT22;25309;48.686;9.170;2022-12-18T14:51:33;-0.40;99.90
39621;DHT22;25309;48.686;9.170;2022-12-18T14:54:03;-0.40;99.90
39621;DHT22;25309;48.686;9.170;2022-12-18T14:56:32;-0.50;99.90
39621;DHT22;25309;48.686;9.170;2022-12-18T14:59:01;-0.60;99.90
39621;DHT22;25309;48.686;9.170;2022-12-18T15:01:32;-0.70;99.90
39621;DHT22;25309;48.686;9.170;2022-12-18T15:04:01;-0.80;99.90
39621;DHT22;25309;48.686;9.170;2022-12-18T15:06:32;-0.80;99.90
39621;DHT22;25309;48.686;9.170;2022-12-18T15:09:03;-0.90;99.90
39621;DHT22;25309;48.686;9.170;2022-12-18T15:11:36;-1.00;99.90
39621;DHT22;25309;48.686;9.170;2022-12-18T15:14:24;-1.00;99.90
39621;DHT22;25309;48.686;9.170;2022-12-18T15:16:58;-1.10;99.90
39621;DHT22;25309;48.686;9.170;2022-12-18T15:19:32;-1.10;99.90
39621;DHT22;25309;48.686;9.170;2022-12-18T15:22:00;-1.20;99.90
39621;DHT22;25309;48.686;9.170;2022-12-18T15:24:33;-1.30;99.90
39621;DHT22;25309;48.686;9.170;2022-12-18T15:27:01;-1.40;99.90
39621;DHT22;25309;48.686;9.170;2022-12-18T15:29:28;-1.40;99.90
39621;DHT22;25309;48.686;9.170;2022-12-18T15:32:00;-1.40;99.90
39621;DHT22;25309;48.686;9.170;2022-12-18T15:34:27;-1.50;99.90
39621;DHT22;25309;48.686;9.170;2022-12-18T15:36:54;-1.60;99.90
39621;DHT22;25309;48.686;9.170;2022-12-18T15:39:21;-1.60;99.90
39621;DHT22;25309;48.686;9.170;2022-12-18T15:41:50;-1.60;99.90
39621;DHT22;25309;48.686;9.170;2022-12-18T15:44:36;-1.60;99.90
39621;DHT22;25309;48.686;9.170;2022-12-18T15:47:04;-1.60;99.90
39621;DHT22;25309;48.686;9.170;2022-12-18T15:49:34;-1.60;99.90
39621;DHT22;25309;48.686;9.170;2022-12-18T15:52:02;-1.70;99.90
39621;DHT22;25309;48.686;9.170;2022-12-18T15:54:29;-1.70;99.90
39621;DHT22;25309;48.686;9.170;2022-12-18T15:57:16;-1.70;99.90
39621;DHT22;25309;48.686;9.170;2022-12-18T15:59:53;-1.70;99.90
39621;DHT22;25309;48.686;9.170;2022-12-18T16:02:21;-1.70;99.90
39621;DHT22;25309;48.686;9.170;2022-12-18T16:04:50;-1.70;99.90
39621;DHT22;25309;48.686;9.170;2022-12-18T16:07:18;-1.70;99.90
39621;DHT22;25309;48.686;9.170;2022-12-18T16:09:51;-1.70;99.90